Time;durP1;ratioP1;P1;durP2;ratioP2;P2;SDS_P1;SDS_P2;PMS_P1;PMS_P2;Temp;Humidity;BMP_temperature;BMP_pressure;BME280_temperature;BME280_humidity;BME280_pressure;Samples;Min_cycle;Max_cycle;Signal;HPM_P1;HPM_P2
2022/11/03 00:02:16;;;;;;;0.90;0.90;;;;;;;16.98;75.98;100560.03;5111447;28;20197;-71
2022/11/03 00:04:43;;;;;;;1.10;1.10;;;;;;;16.73;76.56;100531.28;5112676;27;20225;-71
2022/11/03 00:07:10;;;;;;;1.20;1.10;;;;;;;16.76;77.98;100554.00;5100440;28;20280;-71
2022/11/03 00:09:36;;;;;;;1.00;1.00;;;;;;;16.68;78.87;100553.13;5092936;28;20201;-71
2022/11/03 00:12:04;;;;;;;1.50;1.40;;;;;;;16.61;79.83;100561.88;5109212;28;20205;-71
2022/11/03 00:14:31;;;;;;;0.90;0.90;;;;;;;16.53;80.85;100571.44;5113129;28;20209;-71
2022/11/03 00:16:58;;;;;;;1.00;1.00;;;;;;;16.45;81.32;100566.22;5080300;28;20209;-70
2022/11/03 00:19:26;;;;;;;1.10;1.00;;;;;;;16.59;81.45;100571.47;5093748;28;20243;-71
2022/11/03 00:21:53;;;;;;;1.83;1.70;;;;;;;16.41;82.28;100563.63;5097402;28;20191;-71
2022/11/03 00:24:19;;;;;;;1.08;1.00;;;;;;;16.27;83.67;100577.56;5099017;28;20197;-70
2022/11/03 00:26:46;;;;;;;0.85;0.85;;;;;;;16.15;83.87;100559.28;5102422;28;20270;-70
2022/11/03 00:29:14;;;;;;;1.10;1.10;;;;;;;16.26;84.33;100578.47;5045259;28;20214;-70
2022/11/03 00:31:42;;;;;;;1.15;1.15;;;;;;;15.91;84.77;100538.31;5105545;28;20194;-70
2022/11/03 00:34:10;;;;;;;0.93;0.93;;;;;;;16.05;85.72;100583.66;5092573;28;20194;-71
2022/11/03 00:36:40;;;;;;;1.00;1.00;;;;;;;16.04;87.12;100589.78;5092667;28;20206;-70
2022/11/03 00:39:07;;;;;;;1.10;1.10;;;;;;;15.80;87.85;100571.44;5092357;28;20213;-71
2022/11/03 00:41:34;;;;;;;1.10;1.10;;;;;;;15.85;88.15;100590.63;5092436;28;20203;-70
2022/11/03 00:44:01;;;;;;;0.75;0.75;;;;;;;15.68;89.50;100594.94;5092273;28;20212;-70
2022/11/03 00:46:29;;;;;;;1.00;1.00;;;;;;;15.65;90.52;100594.94;5092202;28;20245;-71
2022/11/03 00:48:55;;;;;;;0.90;0.90;;;;;;;15.66;90.06;100596.69;5091613;28;20229;-70
2022/11/03 00:51:24;;;;;;;0.90;0.90;;;;;;;15.72;89.93;100594.97;5092089;28;20198;-71
2022/11/03 00:53:55;;;;;;;1.00;1.00;;;;;;;15.64;90.39;100601.91;5092189;28;20220;-71
2022/11/03 00:56:23;;;;;;;1.00;1.00;;;;;;;15.64;90.46;100601.03;5092048;28;20198;-70
2022/11/03 00:58:51;;;;;;;0.80;0.80;;;;;;;15.59;90.82;100608.00;5091840;28;20209;-71
2022/11/03 01:01:20;;;;;;;1.27;1.27;;;;;;;15.67;90.48;100606.25;5093034;28;21018;-71
2022/11/03 01:09:17;;;;;;;0.90;0.90;;;;;;;15.57;91.23;100617.56;5105840;28;20634;-70
2022/11/03 01:11:52;;;;;;;0.90;0.90;;;;;;;15.48;92.30;100609.66;5111601;28;20616;-70
2022/11/03 01:14:19;;;;;;;1.00;1.00;;;;;;;15.25;93.10;100586.94;5111946;28;20208;-70
2022/11/03 01:16:45;;;;;;;1.00;1.00;;;;;;;15.34;93.30;100613.09;5063412;28;20219;-70
2022/11/03 01:19:12;;;;;;;0.88;0.88;;;;;;;15.32;93.21;100609.59;5092684;28;20202;-70
2022/11/03 01:21:39;;;;;;;0.90;0.90;;;;;;;15.35;92.67;100609.63;5097969;28;20217;-71
2022/11/03 01:24:06;;;;;;;1.15;1.13;;;;;;;15.41;92.24;100602.69;5107754;28;20205;-71
2022/11/03 01:26:34;;;;;;;1.00;1.00;;;;;;;15.53;91.34;100603.63;5109761;28;20193;-70
2022/11/03 01:29:01;;;;;;;0.98;0.98;;;;;;;15.47;90.16;100592.25;5096661;28;20890;-70
2022/11/03 01:31:28;;;;;;;0.93;0.93;;;;;;;15.55;90.14;100591.44;5105371;28;20208;-71
2022/11/03 01:33:56;;;;;;;0.82;0.82;;;;;;;15.40;89.53;100560.00;5111838;28;20198;-70
2022/11/03 01:36:24;;;;;;;1.00;1.00;;;;;;;15.55;89.03;100606.25;5102234;28;20209;-71
2022/11/03 01:38:51;;;;;;;1.17;1.10;;;;;;;15.73;87.85;100624.59;5091578;28;20202;-70
2022/11/03 01:41:19;;;;;;;0.90;0.90;;;;;;;15.80;87.38;100626.38;5072348;28;20206;-70
2022/11/03 01:43:50;;;;;;;0.90;0.90;;;;;;;15.77;87.49;100621.09;5091279;28;20190;-71
2022/11/03 01:46:21;;;;;;;0.82;0.82;;;;;;;15.67;88.06;100620.22;5090925;28;20202;-71
2022/11/03 01:48:56;;;;;;;0.90;0.90;;;;;;;15.70;88.19;100627.19;5090333;28;20229;-70
2022/11/03 01:51:25;;;;;;;0.88;0.88;;;;;;;15.71;88.29;100634.16;5091005;28;20201;-71
2022/11/03 01:53:55;;;;;;;0.77;0.77;;;;;;;15.63;90.99;100628.03;5090678;28;20205;-70
2022/11/03 01:56:23;;;;;;;1.00;1.00;;;;;;;15.48;93.90;100643.66;5090645;28;20206;-70
2022/11/03 01:58:54;;;;;;;0.80;0.80;;;;;;;15.38;95.29;100627.91;5090899;28;20205;-71
2022/11/03 02:01:22;;;;;;;0.75;0.75;;;;;;;15.24;95.89;100634.81;5097155;28;20194;-71
2022/11/03 02:03:53;;;;;;;0.70;0.70;;;;;;;15.27;96.46;100653.13;5111055;28;20241;-71
2022/11/03 02:06:25;;;;;;;0.90;0.90;;;;;;;14.93;97.47;100604.19;5078100;28;20289;-71
2022/11/03 02:08:56;;;;;;;0.80;0.80;;;;;;;15.08;98.35;100643.44;5098022;28;20678;-71
2022/11/03 02:14:12;;;;;;;1.10;1.10;;;;;;;15.02;99.27;100655.59;5090645;28;20731;-71
2022/11/03 02:16:42;;;;;;;0.80;0.80;;;;;;;14.95;100.00;100662.50;5090219;28;20236;-70
2022/11/03 02:19:19;;;;;;;0.80;0.80;;;;;;;14.94;100.00;100663.38;5090220;28;20194;-71
2022/11/03 02:21:55;;;;;;;0.80;0.80;;;;;;;14.81;100.00;100648.47;5100361;28;20254;-70
2022/11/03 02:24:27;;;;;;;0.90;0.90;;;;;;;14.84;100.00;100669.38;5104824;28;20200;-70
2022/11/03 02:26:56;;;;;;;0.90;0.90;;;;;;;14.48;100.00;100627.38;5054416;28;20197;-71
2022/11/03 02:29:23;;;;;;;1.90;1.80;;;;;;;14.66;100.00;100666.66;5090274;28;20685;-71
2022/11/03 02:31:57;;;;;;;0.80;0.80;;;;;;;14.63;100.00;100651.84;5068088;28;20218;-70
2022/11/03 02:34:31;;;;;;;0.90;0.90;;;;;;;14.30;100.00;100595.00;5070150;28;20256;-71
2022/11/03 02:37:04;;;;;;;1.00;1.00;;;;;;;14.67;100.00;100663.16;5074011;28;20209;-71
2022/11/03 02:39:37;;;;;;;0.95;0.95;;;;;;;14.76;100.00;100669.34;5110481;28;20289;-70
2022/11/03 02:42:08;;;;;;;0.98;0.98;;;;;;;14.74;100.00;100667.56;5110624;28;20250;-70
2022/11/03 02:44:36;;;;;;;0.90;0.90;;;;;;;14.60;100.00;100661.38;5110495;28;20202;-70
2022/11/03 02:47:07;;;;;;;1.00;1.00;;;;;;;14.58;100.00;100655.28;5098306;28;20608;-70
2022/11/03 02:49:38;;;;;;;1.00;1.00;;;;;;;14.57;100.00;100661.34;5089937;28;20265;-71
2022/11/03 02:52:07;;;;;;;1.20;1.10;;;;;;;14.51;100.00;100658.72;5093965;28;20281;-71
2022/11/03 02:54:38;;;;;;;1.00;1.00;;;;;;;14.47;100.00;100649.97;5105545;28;20213;-70
2022/11/03 02:57:12;;;;;;;0.90;0.90;;;;;;;14.48;100.00;100656.06;5110364;28;20225;-71
2022/11/03 02:59:46;;;;;;;1.00;1.00;;;;;;;14.49;100.00;100652.59;5110496;28;20265;-70
2022/11/03 03:02:18;;;;;;;1.02;1.02;;;;;;;14.50;100.00;100654.34;5106844;28;20201;-71
2022/11/03 03:04:51;;;;;;;1.00;1.00;;;;;;;14.54;100.00;100656.13;5091028;28;20230;-70
2022/11/03 03:07:24;;;;;;;1.08;1.08;;;;;;;14.52;100.00;100657.84;5093417;28;20229;-71
2022/11/03 03:09:57;;;;;;;0.90;0.90;;;;;;;14.53;100.00;100659.56;5110152;28;20239;-70
2022/11/03 03:12:27;;;;;;;0.85;0.85;;;;;;;14.53;98.67;100657.84;5103434;28;20194;-70
2022/11/03 03:14:57;;;;;;;0.98;0.98;;;;;;;14.61;98.27;100660.53;5113420;28;20636;-71
2022/11/03 03:17:30;;;;;;;0.90;0.90;;;;;;;14.11;97.99;100577.47;5077922;28;20254;-70
2022/11/03 03:20:04;;;;;;;0.80;0.80;;;;;;;14.51;97.05;100646.53;5114226;28;20205;-71
2022/11/03 03:22:37;;;;;;;1.05;1.05;;;;;;;14.63;96.96;100666.63;5112315;28;20690;-71
2022/11/03 03:25:10;;;;;;;0.80;0.80;;;;;;;14.61;97.38;100670.97;5110440;28;20200;-70
2022/11/03 03:27:43;;;;;;;1.10;1.10;;;;;;;14.59;97.56;100676.16;5109088;28;20282;-70
2022/11/03 03:30:11;;;;;;;1.02;1.02;;;;;;;14.34;98.67;100643.75;5100400;28;20574;-70
2022/11/03 03:32:41;;;;;;;1.00;1.00;;;;;;;14.47;98.72;100667.38;5093744;28;20213;-70
2022/11/03 03:35:12;;;;;;;0.90;0.90;;;;;;;14.36;100.00;100652.50;5093549;28;20206;-70
2022/11/03 03:37:43;;;;;;;0.90;0.90;;;;;;;14.44;100.00;100675.16;5093678;28;20235;-70
2022/11/03 03:40:14;;;;;;;1.40;1.40;;;;;;;14.25;100.00;100664.53;5094012;28;20206;-70
2022/11/03 03:42:45;;;;;;;1.10;1.10;;;;;;;14.28;100.00;100679.31;5093617;28;20198;-70
2022/11/03 03:45:13;;;;;;;1.00;1.00;;;;;;;14.06;100.00;100683.44;5093414;28;20753;-71
2022/11/03 03:47:40;;;;;;;0.70;0.70;;;;;;;14.01;100.00;100679.94;5093432;28;20249;-70
2022/11/03 03:50:08;;;;;;;0.90;0.90;;;;;;;13.83;100.00;100657.16;5093300;28;20202;-70
2022/11/03 03:52:35;;;;;;;0.80;0.80;;;;;;;13.80;100.00;100680.59;5093499;28;20202;-70
2022/11/03 03:55:02;;;;;;;0.88;0.88;;;;;;;13.78;100.00;100681.41;5074447;28;20673;-70
2022/11/03 03:57:31;;;;;;;1.00;1.00;;;;;;;13.70;100.00;100656.97;5093211;28;20202;-70
2022/11/03 03:59:59;;;;;;;0.90;0.90;;;;;;;14.15;100.00;100651.38;5092775;28;20624;-70
2022/11/03 04:02:26;;;;;;;0.80;0.80;;;;;;;14.02;100.00;100660.81;5104032;28;20194;-69
2022/11/03 04:04:53;;;;;;;0.70;0.70;;;;;;;13.88;100.00;100678.91;5110266;28;20522;-69
2022/11/03 04:10:04;;;;;;;0.90;0.90;;;;;;;13.97;100.00;100685.09;5110787;28;20258;-69
2022/11/03 04:23:31;;;;;;;1.00;1.00;;;;;;;13.71;100.00;100657.00;5049423;28;20295;-69
2022/11/03 04:25:59;;;;;;;0.80;0.80;;;;;;;13.89;100.00;100685.00;5067953;28;20210;-71
2022/11/03 04:28:27;;;;;;;0.93;0.93;;;;;;;13.67;100.00;100663.03;5064030;28;20223;-70
2022/11/03 04:30:57;;;;;;;0.90;0.90;;;;;;;13.43;100.00;100614.97;5059124;28;20305;-70
2022/11/03 04:33:24;;;;;;;0.80;0.80;;;;;;;13.47;100.00;100648.91;5056241;28;20227;-71
2022/11/03 04:35:52;;;;;;;0.75;0.75;;;;;;;13.32;100.00;100609.63;5062242;28;20202;-70
2022/11/03 04:38:23;;;;;;;1.98;1.88;;;;;;;13.89;100.00;100695.44;5069392;28;20575;-70
2022/11/03 04:40:54;;;;;;;1.00;1.00;;;;;;;13.88;100.00;100691.06;5069152;28;20199;-70
2022/11/03 04:43:22;;;;;;;0.90;0.90;;;;;;;13.85;100.00;100693.66;5053622;28;20198;-71
2022/11/03 04:45:49;;;;;;;0.90;0.90;;;;;;;13.70;100.00;100689.13;5033537;28;20207;-70
2022/11/03 04:48:21;;;;;;;0.82;0.82;;;;;;;13.93;100.00;100712.00;5049278;28;20235;-70
2022/11/03 04:50:50;;;;;;;0.90;0.90;;;;;;;13.93;100.00;100714.59;5054199;28;20645;-71
2022/11/03 04:53:18;;;;;;;1.20;1.20;;;;;;;13.91;100.00;100698.97;5060043;28;20199;-71
2022/11/03 04:55:48;;;;;;;0.85;0.85;;;;;;;13.96;100.00;100712.91;5050499;28;20199;-71
2022/11/03 04:58:19;;;;;;;0.88;0.88;;;;;;;13.85;100.00;100699.75;5078600;28;20198;-70
2022/11/03 05:00:46;;;;;;;1.00;1.00;;;;;;;13.85;100.00;100711.91;5091848;28;20204;-71
2022/11/03 05:03:16;;;;;;;0.90;0.90;;;;;;;13.97;100.00;100714.66;5092028;28;20323;-71
2022/11/03 05:05:44;;;;;;;0.70;0.70;;;;;;;13.95;100.00;100713.75;5091997;28;20624;-71
2022/11/03 05:08:12;;;;;;;0.80;0.80;;;;;;;13.93;100.00;100712.00;5110180;28;20220;-71
2022/11/03 05:10:38;;;;;;;0.80;0.80;;;;;;;13.87;100.00;100684.13;5075177;28;20186;-71
2022/11/03 05:13:09;;;;;;;1.65;1.55;;;;;;;13.96;100.00;100676.41;5096927;28;20213;-71
2022/11/03 05:15:40;;;;;;;1.42;1.42;;;;;;;14.29;100.00;100718.47;5101552;28;20206;-71
2022/11/03 05:18:17;;;;;;;0.80;0.80;;;;;;;14.37;100.00;100713.38;5102826;28;20198;-71
2022/11/03 05:20:50;;;;;;;0.70;0.70;;;;;;;14.49;100.00;100717.81;5094456;28;20217;-71
2022/11/03 05:23:18;;;;;;;0.70;0.70;;;;;;;14.54;100.00;100713.53;5092538;28;20229;-71
2022/11/03 05:25:47;;;;;;;0.85;0.85;;;;;;;14.67;100.00;100721.47;5092368;28;20690;-71
2022/11/03 05:28:21;;;;;;;0.80;0.80;;;;;;;14.85;100.00;100729.47;5060654;28;20220;-72
2022/11/03 05:30:48;;;;;;;0.70;0.70;;;;;;;15.07;100.00;100733.13;5110404;28;20711;-72
2022/11/03 05:33:20;;;;;;;0.70;0.70;;;;;;;15.23;100.00;100745.41;5092580;28;20198;-72
2022/11/03 05:35:49;;;;;;;0.90;0.90;;;;;;;15.13;100.00;100764.50;5070799;28;20202;-72
2022/11/03 05:38:19;;;;;;;0.85;0.85;;;;;;;14.93;100.00;100739.09;5071048;28;20655;-72
2022/11/03 05:40:49;;;;;;;0.80;0.80;;;;;;;14.85;100.00;100757.31;5088072;28;20285;-72
2022/11/03 05:43:16;;;;;;;0.80;0.80;;;;;;;14.86;100.00;100759.06;5091392;28;20198;-72
2022/11/03 05:45:43;;;;;;;0.80;0.80;;;;;;;14.84;100.00;100755.53;5055835;28;20217;-73
2022/11/03 05:48:16;;;;;;;0.82;0.82;;;;;;;15.07;100.00;100774.91;5091316;28;20283;-73
2022/11/03 05:50:43;;;;;;;0.90;0.90;;;;;;;14.95;100.00;100781.78;5091382;28;20194;-73
2022/11/03 05:53:25;;;;;;;0.80;0.80;;;;;;;15.07;100.00;100784.47;5055501;28;20214;-72
2022/11/03 05:55:53;;;;;;;0.90;0.90;;;;;;;15.13;100.00;100790.63;5091085;28;20684;-72
2022/11/03 05:58:24;;;;;;;1.00;1.00;;;;;;;15.19;100.00;100790.69;5091274;28;20198;-72
2022/11/03 06:00:51;;;;;;;0.90;0.90;;;;;;;15.14;100.00;100788.88;5055589;28;20662;-72
2022/11/03 06:03:23;;;;;;;1.00;1.00;;;;;;;15.01;100.00;100787.91;5091117;28;20646;-72
2022/11/03 06:05:50;;;;;;;1.58;1.45;;;;;;;14.99;100.00;100794.84;5091085;28;20205;-72
2022/11/03 06:08:23;;;;;;;0.80;0.80;;;;;;;15.15;100.00;100788.03;5090842;28;20278;-72
2022/11/03 06:10:53;;;;;;;0.90;0.90;;;;;;;15.16;100.00;100795.84;5097604;28;20271;-72
2022/11/03 06:13:25;;;;;;;0.80;0.80;;;;;;;15.28;100.00;100785.50;5091554;28;20209;-71
2022/11/03 06:15:58;;;;;;;0.80;0.80;;;;;;;15.18;100.00;100788.94;5076982;28;20214;-70
2022/11/03 06:18:29;;;;;;;1.08;1.08;;;;;;;15.23;100.00;100791.59;5090617;28;20244;-69
2022/11/03 06:20:59;;;;;;;1.35;1.30;;;;;;;15.19;100.00;100793.28;5089952;28;20263;-70
2022/11/03 06:23:27;;;;;;;0.80;0.80;;;;;;;15.16;100.00;100795.84;5093838;28;20581;-70
2022/11/03 06:25:56;;;;;;;0.80;0.80;;;;;;;15.33;100.00;100804.72;5090025;28;20198;-70
2022/11/03 06:28:25;;;;;;;0.90;0.90;;;;;;;15.27;100.00;100799.44;5089617;28;20225;-70
2022/11/03 06:30:52;;;;;;;0.60;0.60;;;;;;;15.29;100.00;100817.75;5077440;28;20201;-70
2022/11/03 06:33:23;;;;;;;0.80;0.80;;;;;;;15.31;100.00;100824.72;5100242;28;20216;-70
2022/11/03 06:35:53;;;;;;;0.80;0.80;;;;;;;15.20;100.00;100812.44;5090635;28;20210;-69
2022/11/03 06:38:24;;;;;;;1.88;1.77;;;;;;;14.64;100.00;100830.19;5096049;28;20217;-70
2022/11/03 06:40:52;;;;;;;1.98;1.88;;;;;;;14.72;100.00;100836.38;5091017;28;20206;-71
2022/11/03 06:43:23;;;;;;;0.82;0.82;;;;;;;14.78;100.00;100836.44;5090530;28;20304;-70
2022/11/03 06:45:52;;;;;;;0.95;0.82;;;;;;;14.68;100.00;100839.81;5092622;28;20305;-70
2022/11/03 06:48:27;;;;;;;1.00;1.00;;;;;;;14.84;100.00;100812.97;5096091;28;20229;-71
2022/11/03 06:50:55;;;;;;;0.80;0.80;;;;;;;14.97;100.00;100835.75;5094343;28;20205;-71
2022/11/03 06:53:26;;;;;;;0.98;0.98;;;;;;;15.20;100.00;100823.75;5094282;28;20760;-70
2022/11/03 06:55:55;;;;;;;0.93;0.80;;;;;;;15.35;100.00;100839.56;5094425;28;20293;-70
2022/11/03 06:58:30;;;;;;;0.80;0.80;;;;;;;15.56;100.00;100848.44;5093821;28;20226;-70
2022/11/03 07:00:59;;;;;;;0.80;0.80;;;;;;;15.66;100.00;100845.06;5093938;28;20600;-70
2022/11/03 07:03:30;;;;;;;0.65;0.65;;;;;;;15.72;100.00;100850.31;5093731;28;20275;-70
2022/11/03 07:05:58;;;;;;;1.17;1.17;;;;;;;15.65;100.00;100844.19;5093844;28;20198;-70
2022/11/03 07:08:28;;;;;;;0.88;0.88;;;;;;;15.69;100.00;100845.06;5093835;28;20312;-70
2022/11/03 07:11:11;;;;;;;0.70;0.70;;;;;;;15.88;100.00;100854.75;5093812;28;20285;-70
2022/11/03 07:13:38;;;;;;;0.70;0.70;;;;;;;15.75;100.00;100860.78;5093516;28;20194;-71
2022/11/03 07:16:12;;;;;;;0.70;0.70;;;;;;;15.86;100.00;100853.91;5094006;28;20194;-72
2022/11/03 07:18:41;;;;;;;0.70;0.70;;;;;;;16.00;100.00;100862.69;5074609;28;20197;-70
2022/11/03 07:21:25;;;;;;;0.75;0.75;;;;;;;16.23;100.00;100866.28;5093813;28;20233;-71
2022/11/03 07:23:52;;;;;;;0.60;0.60;;;;;;;16.32;98.52;100861.09;5093335;28;20201;-69
2022/11/03 07:26:20;;;;;;;0.60;0.60;;;;;;;16.52;97.16;100861.16;5093394;28;20194;-69
2022/11/03 07:28:48;;;;;;;0.70;0.70;;;;;;;16.42;95.99;100859.38;5093242;28;20677;-69
2022/11/03 07:31:18;;;;;;;0.70;0.70;;;;;;;16.68;96.08;100855.16;5093473;28;20240;-69
2022/11/03 07:33:46;;;;;;;0.80;0.80;;;;;;;16.55;96.80;100850.69;5093241;28;20194;-71
2022/11/03 07:36:16;;;;;;;1.38;1.33;;;;;;;16.73;95.11;100858.63;5093247;28;20694;-71
2022/11/03 07:38:44;;;;;;;0.70;0.70;;;;;;;16.56;94.52;100807.09;5093263;28;20259;-69
2022/11/03 07:41:18;;;;;;;0.70;0.70;;;;;;;17.22;92.44;100864.84;5057294;28;20286;-71
2022/11/03 07:43:51;;;;;;;26.83;2.75;;;;;;;17.26;90.46;100860.47;5093403;28;20205;-69
2022/11/03 07:46:22;;;;;;;0.95;0.95;;;;;;;17.13;89.95;100836.00;5074597;28;20209;-70
2022/11/03 07:48:52;;;;;;;0.70;0.70;;;;;;;17.37;89.18;100868.34;5093012;28;20253;-70
2022/11/03 07:51:22;;;;;;;1.15;1.15;;;;;;;17.01;88.79;100783.59;5093059;28;20210;-70
2022/11/03 07:53:51;;;;;;;0.70;0.70;;;;;;;17.38;88.98;100852.59;5092858;28;20209;-70
2022/11/03 07:56:20;;;;;;;0.93;0.90;;;;;;;17.20;87.55;100848.22;5092742;28;20665;-70
2022/11/03 07:58:52;;;;;;;2.38;1.13;;;;;;;17.46;88.35;100860.47;5092457;28;20225;-70
2022/11/03 08:01:27;;;;;;;0.70;0.70;;;;;;;17.71;87.02;100870.09;5092538;28;20230;-70
2022/11/03 08:03:59;;;;;;;0.75;0.75;;;;;;;18.00;85.61;100870.91;5092462;28;20237;-70
2022/11/03 08:06:26;;;;;;;0.80;0.80;;;;;;;18.19;83.69;100864.72;5092927;28;20210;-70
2022/11/03 08:08:53;;;;;;;0.70;0.70;;;;;;;18.09;80.84;100851.63;5092659;28;20233;-70
2022/11/03 08:11:21;;;;;;;0.70;0.70;;;;;;;18.05;80.99;100856.00;5092682;28;20190;-70
2022/11/03 08:13:49;;;;;;;1.00;1.00;;;;;;;18.03;81.20;100835.91;5057656;28;20190;-70
2022/11/03 08:16:16;;;;;;;0.70;0.70;;;;;;;18.22;81.14;100843.72;5092464;28;20202;-70
2022/11/03 08:18:43;;;;;;;8.30;3.60;;;;;;;18.16;79.84;100838.47;5092807;28;20198;-70
2022/11/03 08:21:10;;;;;;;1.20;1.20;;;;;;;18.48;77.63;100827.81;5092448;28;20217;-71
2022/11/03 08:23:37;;;;;;;0.90;0.90;;;;;;;18.75;75.62;100824.22;5092296;28;20677;-70
2022/11/03 08:26:03;;;;;;;0.70;0.70;;;;;;;18.87;75.26;100824.13;5092385;28;20202;-70
2022/11/03 08:28:31;;;;;;;1.92;1.70;;;;;;;18.59;75.12;100826.03;5056423;28;20206;-69
2022/11/03 08:31:03;;;;;;;0.82;0.82;;;;;;;18.90;73.80;100799.59;5092106;28;20825;-69
2022/11/03 08:33:30;;;;;;;0.80;0.80;;;;;;;18.60;74.38;100793.66;5091957;28;20194;-71
2022/11/03 08:35:56;;;;;;;1.27;1.27;;;;;;;18.87;73.18;100826.75;5092051;28;20201;-69
2022/11/03 08:38:23;;;;;;;0.70;0.70;;;;;;;19.06;72.16;100819.59;5092163;28;20198;-70
2022/11/03 08:40:50;;;;;;;0.90;0.90;;;;;;;19.22;71.90;100819.50;5091871;28;20200;-70
2022/11/03 08:43:17;;;;;;;0.70;0.70;;;;;;;19.21;70.04;100796.69;5091864;28;20206;-70
2022/11/03 08:45:44;;;;;;;0.60;0.60;;;;;;;19.33;69.16;100826.41;5091999;28;20199;-72
2022/11/03 08:48:12;;;;;;;0.80;0.80;;;;;;;19.22;70.14;100832.63;5091681;28;20205;-69
2022/11/03 08:50:39;;;;;;;0.70;0.70;;;;;;;19.14;70.29;100818.66;5091553;28;20230;-70
2022/11/03 08:53:06;;;;;;;0.88;0.88;;;;;;;19.16;70.24;100816.88;5091679;28;20240;-69
2022/11/03 08:55:33;;;;;;;0.98;0.98;;;;;;;19.15;70.03;100809.03;5091827;28;20201;-71
2022/11/03 08:58:00;;;;;;;0.80;0.80;;;;;;;19.10;69.49;100805.56;5091769;28;20206;-70
2022/11/03 09:00:27;;;;;;;2.00;1.90;;;;;;;19.46;68.06;100831.56;5091623;28;20201;-72
2022/11/03 09:02:53;;;;;;;0.90;0.90;;;;;;;19.49;67.05;100817.50;5091606;28;20226;-72
2022/11/03 09:05:22;;;;;;;0.90;0.90;;;;;;;19.54;67.15;100819.22;5091346;28;20230;-70
2022/11/03 09:07:48;;;;;;;0.70;0.70;;;;;;;19.57;65.26;100802.53;5091552;28;20674;-71
2022/11/03 09:10:15;;;;;;;0.98;0.98;;;;;;;19.92;64.87;100826.72;5090615;28;20233;-70
2022/11/03 09:12:42;;;;;;;0.90;0.90;;;;;;;19.72;64.45;100805.00;5091389;28;20301;-70
2022/11/03 09:15:10;;;;;;;0.80;0.80;;;;;;;19.58;65.42;100827.97;5091652;28;20206;-70
2022/11/03 09:17:37;;;;;;;1.02;1.02;;;;;;;19.78;63.89;100828.63;5072601;28;20206;-70
2022/11/03 09:20:05;;;;;;;0.80;0.80;;;;;;;19.81;63.00;100823.31;5091339;28;20682;-70
2022/11/03 09:22:33;;;;;;;1.10;1.10;;;;;;;19.89;62.57;100800.41;5091032;28;20202;-70
2022/11/03 09:24:59;;;;;;;0.80;0.80;;;;;;;20.00;62.55;100816.97;5091053;28;20198;-70
2022/11/03 09:27:26;;;;;;;0.70;0.70;;;;;;;19.97;62.55;100801.22;5091181;28;20198;-70
2022/11/03 09:29:53;;;;;;;0.70;0.70;;;;;;;20.05;62.34;100817.75;5090950;28;20728;-70
2022/11/03 09:32:20;;;;;;;0.80;0.80;;;;;;;20.10;61.43;100767.69;5091188;28;20206;-71
2022/11/03 09:34:47;;;;;;;0.90;0.90;;;;;;;20.25;61.06;100810.50;5091086;28;20198;-70
2022/11/03 09:37:14;;;;;;;1.42;1.42;;;;;;;20.00;61.56;100806.44;5090836;28;20201;-70
2022/11/03 09:39:42;;;;;;;0.70;0.70;;;;;;;20.33;60.93;100812.22;5090759;28;20198;-70
2022/11/03 09:42:11;;;;;;;1.20;1.20;;;;;;;20.36;60.49;100791.97;5090749;28;20697;-70
2022/11/03 09:44:38;;;;;;;0.88;0.88;;;;;;;20.36;60.04;100772.66;5090676;28;20197;-70
2022/11/03 09:47:06;;;;;;;0.85;0.85;;;;;;;20.53;60.07;100783.81;5090812;28;20589;-70
2022/11/03 09:49:34;;;;;;;1.00;1.00;;;;;;;20.69;59.54;100782.72;5071787;28;20251;-70
2022/11/03 09:52:03;;;;;;;0.70;0.70;;;;;;;20.75;59.04;100778.22;5055390;28;20194;-70
2022/11/03 09:54:31;;;;;;;0.80;0.80;;;;;;;20.43;58.20;100755.88;5090897;28;20198;-70
2022/11/03 09:57:10;;;;;;;1.80;1.70;;;;;;;20.36;59.70;100775.28;5090606;28;20198;-70
2022/11/03 09:59:37;;;;;;;0.80;0.80;;;;;;;20.52;59.14;100761.00;5090820;28;20210;-70
2022/11/03 10:02:17;;;;;;;1.00;1.00;;;;;;;20.89;58.54;100778.00;5090674;28;20692;-70
2022/11/03 10:04:44;;;;;;;0.70;0.70;;;;;;;20.66;57.55;100766.91;5090404;28;20233;-70
2022/11/03 10:07:11;;;;;;;1.02;1.02;;;;;;;20.86;56.71;100756.09;5085699;28;20202;-70
2022/11/03 10:09:42;;;;;;;1.35;1.35;;;;;;;20.74;56.47;100757.13;5069985;28;20226;-70
2022/11/03 10:12:11;;;;;;;1.10;1.10;;;;;;;20.60;55.94;100753.84;5084944;28;20206;-70
2022/11/03 10:14:38;;;;;;;1.52;1.52;;;;;;;20.67;55.39;100747.59;5090332;28;20194;-69
2022/11/03 10:17:05;;;;;;;1.05;1.05;;;;;;;20.62;55.52;100745.00;5075990;28;20202;-69
2022/11/03 10:19:32;;;;;;;0.90;0.90;;;;;;;20.53;55.55;100733.75;5090463;28;20671;-69
2022/11/03 10:21:59;;;;;;;1.02;1.02;;;;;;;20.84;54.91;100748.19;5093272;28;20193;-70
2022/11/03 10:24:26;;;;;;;3.60;1.30;;;;;;;20.75;54.41;100743.94;5094424;28;20604;-72
2022/11/03 10:26:54;;;;;;;0.73;0.73;;;;;;;20.75;54.56;100728.13;5081925;28;20587;-70
2022/11/03 10:29:24;;;;;;;1.30;1.30;;;;;;;21.16;54.28;100724.81;5093015;28;20790;-70
2022/11/03 10:31:53;;;;;;;0.77;0.77;;;;;;;21.10;53.95;100724.03;5094413;28;20198;-70
2022/11/03 10:34:36;;;;;;;0.90;0.90;;;;;;;21.26;54.09;100717.59;5094002;28;20206;-70
2022/11/03 10:37:20;;;;;;;0.90;0.90;;;;;;;21.16;53.55;100713.38;5094162;28;20225;-70
2022/11/03 10:39:48;;;;;;;1.55;1.45;;;;;;;20.90;53.98;100713.84;5080516;28;20280;-70
2022/11/03 10:42:19;;;;;;;0.88;0.88;;;;;;;21.00;53.58;100702.22;5081423;28;20206;-70
2022/11/03 10:44:47;;;;;;;0.90;0.90;;;;;;;20.74;52.84;100623.59;5093245;28;20289;-69
2022/11/03 10:47:26;;;;;;;0.82;0.82;;;;;;;21.17;52.61;100672.94;5093967;28;20267;-70
2022/11/03 10:49:54;;;;;;;1.00;1.00;;;;;;;21.23;52.58;100697.41;5094067;28;20691;-70
2022/11/03 10:52:23;;;;;;;0.80;0.80;;;;;;;21.29;52.11;100678.00;5082263;28;20293;-70
2022/11/03 10:54:52;;;;;;;1.08;1.08;;;;;;;21.52;52.08;100690.72;5054855;28;20191;-71
2022/11/03 10:57:20;;;;;;;0.80;0.80;;;;;;;21.71;51.64;100682.41;5084277;28;20206;-71
2022/11/03 10:59:50;;;;;;;0.90;0.90;;;;;;;21.97;50.52;100681.00;5093897;28;20206;-70
2022/11/03 11:02:19;;;;;;;0.90;0.90;;;;;;;21.83;50.34;100675.97;5093681;28;20673;-70
2022/11/03 11:04:48;;;;;;;0.93;0.93;;;;;;;21.59;50.39;100650.09;5093374;28;20230;-70
2022/11/03 11:07:22;;;;;;;0.80;0.80;;;;;;;21.48;50.40;100657.34;5094220;28;20191;-70
2022/11/03 11:09:49;;;;;;;0.90;0.90;;;;;;;21.42;51.15;100670.69;5093980;28;20222;-70
2022/11/03 11:12:18;;;;;;;0.95;0.95;;;;;;;21.87;50.41;100659.16;5093583;28;20660;-70
2022/11/03 11:14:59;;;;;;;1.05;1.05;;;;;;;22.08;50.04;100642.03;5093540;28;20202;-72
2022/11/03 11:17:42;;;;;;;1.58;1.58;;;;;;;22.17;49.10;100661.16;5093474;28;20205;-73
2022/11/03 11:20:29;;;;;;;0.90;0.90;;;;;;;22.15;48.67;100660.31;5050574;28;20207;-71
2022/11/03 11:23:31;;;;;;;0.80;0.80;;;;;;;22.23;48.56;100660.13;5050873;28;20199;-71
2022/11/03 11:26:30;;;;;;;1.00;1.00;;;;;;;22.28;48.62;100647.69;5030594;28;20715;-71
2022/11/03 11:29:39;;;;;;;0.80;0.80;;;;;;;22.44;47.80;100642.94;5029406;28;20196;-71
2022/11/03 11:32:48;;;;;;;0.90;0.90;;;;;;;22.36;47.36;100648.41;5030156;28;20826;-71
2022/11/03 11:35:39;;;;;;;5.95;2.28;;;;;;;22.33;47.81;100642.31;5030651;28;20387;-71
2022/11/03 11:38:43;;;;;;;0.90;0.90;;;;;;;22.45;47.25;100634.06;5030561;28;20287;-70
2022/11/03 11:41:09;;;;;;;0.70;0.70;;;;;;;22.36;47.44;100634.31;5030670;28;20206;-70
2022/11/03 11:43:38;;;;;;;1.00;1.00;;;;;;;22.54;47.07;100629.44;5038508;28;20207;-71
2022/11/03 11:46:38;;;;;;;0.80;0.80;;;;;;;22.89;46.58;100628.56;5050806;28;20692;-70
2022/11/03 11:49:17;;;;;;;1.23;1.23;;;;;;;22.91;46.72;100634.66;4942850;28;20256;-70
2022/11/03 11:51:44;;;;;;;0.80;0.80;;;;;;;22.80;45.83;100620.84;4991062;28;20235;-70
2022/11/03 11:54:16;;;;;;;0.90;0.90;;;;;;;22.82;45.78;100619.06;4958826;28;20202;-71
2022/11/03 11:56:44;;;;;;;0.85;0.85;;;;;;;22.66;46.03;100601.81;4998706;28;20231;-71
2022/11/03 11:59:19;;;;;;;0.77;0.77;;;;;;;22.81;45.80;100619.94;5030073;28;20208;-70